sensor_id;sensor_type;location;lat;lon;timestamp;pressure;altitude;pressure_sealevel;temperature;humidity
45939;BME280;31650;48.818;9.116;2022-08-21T00:11:54;98035.56;;;14.36;100.00
45939;BME280;31650;48.818;9.116;2022-08-21T00:26:54;98028.63;;;14.17;100.00
45939;BME280;31650;48.818;9.116;2022-08-21T00:41:55;98028.88;;;14.03;100.00
45939;BME280;31650;48.818;9.116;2022-08-21T00:56:57;98029.34;;;14.12;100.00
45939;BME280;31650;48.818;9.116;2022-08-21T01:11:58;98021.91;;;14.36;100.00
45939;BME280;31650;48.818;9.116;2022-08-21T01:26:59;98022.00;;;13.89;100.00
45939;BME280;31650;48.818;9.116;2022-08-21T01:42:00;98023.59;;;13.50;100.00
45939;BME280;31650;48.818;9.116;2022-08-21T01:57:00;98023.19;;;12.99;100.00
45939;BME280;31650;48.818;9.116;2022-08-21T02:12:01;98010.94;;;12.90;100.00
45939;BME280;31650;48.818;9.116;2022-08-21T02:27:01;98017.81;;;12.50;100.00
45939;BME280;31650;48.818;9.116;2022-08-21T02:42:01;98019.56;;;12.45;100.00
45939;BME280;31650;48.818;9.116;2022-08-21T02:57:01;98025.44;;;12.11;100.00
45939;BME280;31650;48.818;9.116;2022-08-21T03:12:02;98029.66;;;11.96;100.00
45939;BME280;31650;48.818;9.116;2022-08-21T03:27:02;98030.44;;;12.14;100.00
45939;BME280;31650;48.818;9.116;2022-08-21T03:42:02;98037.13;;;12.00;100.00
45939;BME280;31650;48.818;9.116;2022-08-21T03:57:02;98049.81;;;11.69;100.00
45939;BME280;31650;48.818;9.116;2022-08-21T04:12:03;98061.88;;;11.30;100.00
45939;BME280;31650;48.818;9.116;2022-08-21T04:27:03;98075.41;;;11.43;100.00
45939;BME280;31650;48.818;9.116;2022-08-21T04:42:03;98098.00;;;11.19;100.00
45939;BME280;31650;48.818;9.116;2022-08-21T04:57:07;98099.38;;;11.53;100.00
45939;BME280;31650;48.818;9.116;2022-08-21T05:12:10;98095.03;;;11.96;100.00
45939;BME280;31650;48.818;9.116;2022-08-21T05:27:10;98098.38;;;12.65;100.00
45939;BME280;31650;48.818;9.116;2022-08-21T05:42:10;98070.72;;;14.85;100.00
45939;BME280;31650;48.818;9.116;2022-08-21T05:57:11;98045.31;;;17.01;100.00
45939;BME280;31650;48.818;9.116;2022-08-21T06:12:11;98043.75;;;18.33;100.00
45939;BME280;31650;48.818;9.116;2022-08-21T06:27:12;98057.22;;;19.33;100.00
45939;BME280;31650;48.818;9.116;2022-08-21T06:42:13;98025.56;;;20.57;100.00
45939;BME280;31650;48.818;9.116;2022-08-21T06:57:13;98029.28;;;20.81;100.00
45939;BME280;31650;48.818;9.116;2022-08-21T07:12:13;98031.41;;;21.34;100.00
45939;BME280;31650;48.818;9.116;2022-08-21T07:27:13;98023.41;;;23.06;94.55
45939;BME280;31650;48.818;9.116;2022-08-21T07:42:14;98005.50;;;24.38;85.89
45939;BME280;31650;48.818;9.116;2022-08-21T07:57:14;97994.13;;;26.03;75.16
45939;BME280;31650;48.818;9.116;2022-08-21T08:12:15;97990.44;;;27.34;64.36
45939;BME280;31650;48.818;9.116;2022-08-21T08:27:16;97978.19;;;27.91;54.93
45939;BME280;31650;48.818;9.116;2022-08-21T08:57:24;97957.59;;;28.04;47.45
45939;BME280;31650;48.818;9.116;2022-08-21T09:12:33;97951.00;;;27.53;51.41
45939;BME280;31650;48.818;9.116;2022-08-21T09:27:33;97935.53;;;27.56;48.19
45939;BME280;31650;48.818;9.116;2022-08-21T09:42:34;97930.94;;;28.87;43.55
45939;BME280;31650;48.818;9.116;2022-08-21T09:57:34;97926.75;;;27.02;51.92
45939;BME280;31650;48.818;9.116;2022-08-21T10:58:18;97868.75;;;31.28;38.93
45939;BME280;31650;48.818;9.116;2022-08-21T11:13:22;97854.63;;;30.68;36.01
45939;BME280;31650;48.818;9.116;2022-08-21T11:28:33;97847.38;;;31.23;36.94
45939;BME280;31650;48.818;9.116;2022-08-21T11:58:37;97827.66;;;31.83;33.68
45939;BME280;31650;48.818;9.116;2022-08-21T12:13:52;97825.38;;;32.40;33.55
45939;BME280;31650;48.818;9.116;2022-08-21T12:29:02;97815.66;;;28.82;38.60
45939;BME280;31650;48.818;9.116;2022-08-21T12:44:04;97816.47;;;27.22;44.94
45939;BME280;31650;48.818;9.116;2022-08-21T12:59:11;97800.66;;;29.57;38.98
45939;BME280;31650;48.818;9.116;2022-08-21T13:14:18;97781.66;;;31.56;32.63
45939;BME280;31650;48.818;9.116;2022-08-21T13:29:22;97777.03;;;30.31;33.47
45939;BME280;31650;48.818;9.116;2022-08-21T13:59:33;97765.75;;;28.30;36.74
45939;BME280;31650;48.818;9.116;2022-08-21T14:14:33;97765.84;;;27.32;39.48
45939;BME280;31650;48.818;9.116;2022-08-21T14:29:36;97750.13;;;28.83;35.73
45939;BME280;31650;48.818;9.116;2022-08-21T14:44:37;97732.03;;;29.38;35.20
45939;BME280;31650;48.818;9.116;2022-08-21T14:59:38;97721.75;;;29.55;32.76
45939;BME280;31650;48.818;9.116;2022-08-21T15:30:19;97694.72;;;33.72;26.12
45939;BME280;31650;48.818;9.116;2022-08-21T15:45:20;97678.97;;;34.28;25.36
45939;BME280;31650;48.818;9.116;2022-08-21T16:00:22;97678.25;;;32.16;28.06
45939;BME280;31650;48.818;9.116;2022-08-21T16:15:23;97670.72;;;31.34;29.14
45939;BME280;31650;48.818;9.116;2022-08-21T16:30:25;97666.03;;;30.74;30.15
45939;BME280;31650;48.818;9.116;2022-08-21T16:45:25;97659.72;;;30.93;30.12
45939;BME280;31650;48.818;9.116;2022-08-21T17:00:26;97648.81;;;30.60;30.45
45939;BME280;31650;48.818;9.116;2022-08-21T17:15:27;97658.50;;;28.34;34.29
45939;BME280;31650;48.818;9.116;2022-08-21T17:30:28;97666.09;;;26.00;40.35
45939;BME280;31650;48.818;9.116;2022-08-21T17:45:28;97667.09;;;24.72;46.94
45939;BME280;31650;48.818;9.116;2022-08-21T18:00:29;97677.34;;;23.22;63.40
45939;BME280;31650;48.818;9.116;2022-08-21T18:15:30;97687.88;;;22.18;75.88
45939;BME280;31650;48.818;9.116;2022-08-21T18:30:31;97699.41;;;21.06;89.20
45939;BME280;31650;48.818;9.116;2022-08-21T18:45:33;97714.63;;;20.21;97.33
45939;BME280;31650;48.818;9.116;2022-08-21T19:00:36;97730.38;;;19.32;100.00
45939;BME280;31650;48.818;9.116;2022-08-21T19:15:42;97734.91;;;18.97;100.00
45939;BME280;31650;48.818;9.116;2022-08-21T19:30:43;97740.63;;;19.11;100.00
45939;BME280;31650;48.818;9.116;2022-08-21T19:45:45;97747.63;;;18.67;100.00
45939;BME280;31650;48.818;9.116;2022-08-21T20:00:45;97747.66;;;18.37;100.00
45939;BME280;31650;48.818;9.116;2022-08-21T20:15:46;97741.53;;;18.81;100.00
45939;BME280;31650;48.818;9.116;2022-08-21T20:30:50;97744.31;;;18.65;100.00
45939;BME280;31650;48.818;9.116;2022-08-21T20:46:05;97752.06;;;18.43;100.00
45939;BME280;31650;48.818;9.116;2022-08-21T21:16:59;97753.00;;;16.44;100.00
45939;BME280;31650;48.818;9.116;2022-08-21T21:32:02;97758.13;;;15.98;100.00
45939;BME280;31650;48.818;9.116;2022-08-21T21:47:08;97765.66;;;15.59;100.00
45939;BME280;31650;48.818;9.116;2022-08-21T22:02:26;97759.03;;;15.76;100.00
45939;BME280;31650;48.818;9.116;2022-08-21T22:17:46;97763.97;;;15.30;100.00
45939;BME280;31650;48.818;9.116;2022-08-21T22:32:48;97770.53;;;15.07;100.00
45939;BME280;31650;48.818;9.116;2022-08-21T22:47:49;97774.53;;;15.22;100.00
45939;BME280;31650;48.818;9.116;2022-08-21T23:17:57;97759.56;;;15.51;100.00
45939;BME280;31650;48.818;9.116;2022-08-21T23:48:09;97770.88;;;14.72;100.00
